sensor_id;sensor_type;location;lat;lon;timestamp;temperature;humidity
70184;DHT22;57554;51.546;6.776;2023-08-20T00:01:12;20.00;71.60
70184;DHT22;57554;51.546;6.776;2023-08-20T00:03:40;20.00;71.60
70184;DHT22;57554;51.546;6.776;2023-08-20T00:06:06;20.00;71.60
70184;DHT22;57554;51.546;6.776;2023-08-20T00:08:32;20.00;71.60
70184;DHT22;57554;51.546;6.776;2023-08-20T00:10:57;19.90;71.60
70184;DHT22;57554;51.546;6.776;2023-08-20T00:13:23;19.90;71.70
70184;DHT22;57554;51.546;6.776;2023-08-20T00:15:49;19.90;71.60
70184;DHT22;57554;51.546;6.776;2023-08-20T00:18:15;19.80;71.70
70184;DHT22;57554;51.546;6.776;2023-08-20T00:20:40;19.80;71.80
70184;DHT22;57554;51.546;6.776;2023-08-20T00:23:06;19.80;71.80
70184;DHT22;57554;51.546;6.776;2023-08-20T00:25:32;19.80;71.80
70184;DHT22;57554;51.546;6.776;2023-08-20T00:27:58;19.80;71.80
70184;DHT22;57554;51.546;6.776;2023-08-20T00:30:23;19.80;71.90
70184;DHT22;57554;51.546;6.776;2023-08-20T00:32:50;19.80;72.00
70184;DHT22;57554;51.546;6.776;2023-08-20T00:35:15;19.70;71.90
70184;DHT22;57554;51.546;6.776;2023-08-20T00:37:41;19.70;72.00
70184;DHT22;57554;51.546;6.776;2023-08-20T00:40:06;19.70;71.90
70184;DHT22;57554;51.546;6.776;2023-08-20T00:42:32;19.70;71.90
70184;DHT22;57554;51.546;6.776;2023-08-20T00:44:58;19.70;71.80
70184;DHT22;57554;51.546;6.776;2023-08-20T00:47:23;19.70;71.80
70184;DHT22;57554;51.546;6.776;2023-08-20T00:49:49;19.60;71.80
70184;DHT22;57554;51.546;6.776;2023-08-20T00:52:16;19.60;71.90
70184;DHT22;57554;51.546;6.776;2023-08-20T00:54:44;19.60;72.00
70184;DHT22;57554;51.546;6.776;2023-08-20T00:57:13;19.50;72.00
70184;DHT22;57554;51.546;6.776;2023-08-20T00:59:40;19.60;72.00
70184;DHT22;57554;51.546;6.776;2023-08-20T01:02:07;19.50;72.10
70184;DHT22;57554;51.546;6.776;2023-08-20T01:04:33;19.50;72.10
70184;DHT22;57554;51.546;6.776;2023-08-20T01:09:40;19.40;72.20
70184;DHT22;57554;51.546;6.776;2023-08-20T01:12:09;19.40;72.20
70184;DHT22;57554;51.546;6.776;2023-08-20T01:14:35;19.40;72.30
70184;DHT22;57554;51.546;6.776;2023-08-20T01:17:01;19.40;72.40
70184;DHT22;57554;51.546;6.776;2023-08-20T01:19:26;19.40;72.40
70184;DHT22;57554;51.546;6.776;2023-08-20T01:24:59;19.30;72.60
70184;DHT22;57554;51.546;6.776;2023-08-20T01:29:51;19.30;72.50
70184;DHT22;57554;51.546;6.776;2023-08-20T01:32:17;19.30;72.60
70184;DHT22;57554;51.546;6.776;2023-08-20T01:34:43;19.30;72.60
70184;DHT22;57554;51.546;6.776;2023-08-20T01:37:11;19.20;72.60
70184;DHT22;57554;51.546;6.776;2023-08-20T01:39:36;19.20;72.60
70184;DHT22;57554;51.546;6.776;2023-08-20T01:42:02;19.20;72.70
70184;DHT22;57554;51.546;6.776;2023-08-20T01:44:27;19.20;72.80
70184;DHT22;57554;51.546;6.776;2023-08-20T01:46:53;19.10;72.80
70184;DHT22;57554;51.546;6.776;2023-08-20T01:49:18;19.20;72.70
70184;DHT22;57554;51.546;6.776;2023-08-20T01:51:44;19.20;72.60
70184;DHT22;57554;51.546;6.776;2023-08-20T01:54:09;19.10;72.60
70184;DHT22;57554;51.546;6.776;2023-08-20T01:56:35;19.10;72.60
70184;DHT22;57554;51.546;6.776;2023-08-20T01:59:01;19.10;72.60
70184;DHT22;57554;51.546;6.776;2023-08-20T02:01:27;19.10;72.70
70184;DHT22;57554;51.546;6.776;2023-08-20T02:03:53;19.10;72.80
70184;DHT22;57554;51.546;6.776;2023-08-20T02:06:19;19.10;72.90
70184;DHT22;57554;51.546;6.776;2023-08-20T02:08:44;19.10;72.90
70184;DHT22;57554;51.546;6.776;2023-08-20T02:11:10;19.10;72.90
70184;DHT22;57554;51.546;6.776;2023-08-20T02:13:35;19.10;73.00
70184;DHT22;57554;51.546;6.776;2023-08-20T02:16:02;19.10;73.10
70184;DHT22;57554;51.546;6.776;2023-08-20T02:18:29;19.10;73.30
70184;DHT22;57554;51.546;6.776;2023-08-20T02:20:54;19.10;73.40
70184;DHT22;57554;51.546;6.776;2023-08-20T02:23:20;19.10;73.40
70184;DHT22;57554;51.546;6.776;2023-08-20T02:25:46;19.20;73.50
70184;DHT22;57554;51.546;6.776;2023-08-20T02:28:12;19.20;73.60
70184;DHT22;57554;51.546;6.776;2023-08-20T02:30:46;19.20;73.60
70184;DHT22;57554;51.546;6.776;2023-08-20T02:33:12;19.30;73.80
70184;DHT22;57554;51.546;6.776;2023-08-20T02:35:38;19.30;73.70
70184;DHT22;57554;51.546;6.776;2023-08-20T02:38:04;19.30;73.60
70184;DHT22;57554;51.546;6.776;2023-08-20T02:40:30;19.30;73.70
70184;DHT22;57554;51.546;6.776;2023-08-20T02:42:56;19.30;73.60
70184;DHT22;57554;51.546;6.776;2023-08-20T02:45:22;19.30;73.50
70184;DHT22;57554;51.546;6.776;2023-08-20T02:47:48;19.30;73.70
70184;DHT22;57554;51.546;6.776;2023-08-20T02:50:14;19.30;73.60
70184;DHT22;57554;51.546;6.776;2023-08-20T02:52:43;19.30;73.70
70184;DHT22;57554;51.546;6.776;2023-08-20T02:55:09;19.30;73.70
70184;DHT22;57554;51.546;6.776;2023-08-20T02:57:34;19.30;73.80
70184;DHT22;57554;51.546;6.776;2023-08-20T03:00:00;19.30;73.80
70184;DHT22;57554;51.546;6.776;2023-08-20T03:02:25;19.30;73.70
70184;DHT22;57554;51.546;6.776;2023-08-20T03:04:51;19.30;73.80
70184;DHT22;57554;51.546;6.776;2023-08-20T03:07:16;19.30;73.90
70184;DHT22;57554;51.546;6.776;2023-08-20T03:09:42;19.30;73.90
70184;DHT22;57554;51.546;6.776;2023-08-20T03:12:08;19.30;74.00
70184;DHT22;57554;51.546;6.776;2023-08-20T03:14:33;19.30;74.00
70184;DHT22;57554;51.546;6.776;2023-08-20T03:16:59;19.30;74.00
70184;DHT22;57554;51.546;6.776;2023-08-20T03:19:25;19.30;74.00
70184;DHT22;57554;51.546;6.776;2023-08-20T03:21:50;19.30;74.00
70184;DHT22;57554;51.546;6.776;2023-08-20T03:24:16;19.30;73.90
70184;DHT22;57554;51.546;6.776;2023-08-20T03:26:41;19.30;74.00
70184;DHT22;57554;51.546;6.776;2023-08-20T03:29:07;19.30;74.00
70184;DHT22;57554;51.546;6.776;2023-08-20T03:31:32;19.30;74.00
70184;DHT22;57554;51.546;6.776;2023-08-20T03:33:58;19.30;74.00
70184;DHT22;57554;51.546;6.776;2023-08-20T03:36:23;19.30;74.10
70184;DHT22;57554;51.546;6.776;2023-08-20T03:38:49;19.30;74.10
70184;DHT22;57554;51.546;6.776;2023-08-20T03:41:15;19.30;74.10
70184;DHT22;57554;51.546;6.776;2023-08-20T03:43:40;19.30;74.10
70184;DHT22;57554;51.546;6.776;2023-08-20T03:46:06;19.30;74.10
70184;DHT22;57554;51.546;6.776;2023-08-20T03:48:31;19.30;74.10
70184;DHT22;57554;51.546;6.776;2023-08-20T03:50:57;19.30;74.00
70184;DHT22;57554;51.546;6.776;2023-08-20T03:53:22;19.20;74.00
70184;DHT22;57554;51.546;6.776;2023-08-20T03:55:49;19.20;74.10
70184;DHT22;57554;51.546;6.776;2023-08-20T03:58:15;19.20;74.10
70184;DHT22;57554;51.546;6.776;2023-08-20T04:00:40;19.20;74.10
70184;DHT22;57554;51.546;6.776;2023-08-20T04:03:06;19.20;74.10
70184;DHT22;57554;51.546;6.776;2023-08-20T04:05:38;19.20;74.20
70184;DHT22;57554;51.546;6.776;2023-08-20T04:08:04;19.20;74.20
70184;DHT22;57554;51.546;6.776;2023-08-20T04:10:30;19.10;74.20
70184;DHT22;57554;51.546;6.776;2023-08-20T04:12:56;19.10;74.10
70184;DHT22;57554;51.546;6.776;2023-08-20T04:15:22;19.10;74.30
70184;DHT22;57554;51.546;6.776;2023-08-20T04:17:47;19.10;74.40
70184;DHT22;57554;51.546;6.776;2023-08-20T04:20:14;19.10;74.40
70184;DHT22;57554;51.546;6.776;2023-08-20T04:22:40;19.10;74.50
70184;DHT22;57554;51.546;6.776;2023-08-20T04:25:06;19.10;74.50
70184;DHT22;57554;51.546;6.776;2023-08-20T04:27:32;19.10;74.50
70184;DHT22;57554;51.546;6.776;2023-08-20T04:29:57;19.10;74.60
70184;DHT22;57554;51.546;6.776;2023-08-20T04:32:23;19.00;74.60
70184;DHT22;57554;51.546;6.776;2023-08-20T04:34:48;19.00;74.60
70184;DHT22;57554;51.546;6.776;2023-08-20T04:37:18;19.00;74.60
70184;DHT22;57554;51.546;6.776;2023-08-20T04:39:44;19.00;74.70
70184;DHT22;57554;51.546;6.776;2023-08-20T04:42:09;19.00;74.80
70184;DHT22;57554;51.546;6.776;2023-08-20T04:44:35;18.90;74.90
70184;DHT22;57554;51.546;6.776;2023-08-20T04:47:00;18.90;75.00
70184;DHT22;57554;51.546;6.776;2023-08-20T04:49:26;18.90;75.00
70184;DHT22;57554;51.546;6.776;2023-08-20T04:51:54;18.90;75.00
70184;DHT22;57554;51.546;6.776;2023-08-20T04:54:19;18.90;74.90
70184;DHT22;57554;51.546;6.776;2023-08-20T04:56:45;18.90;74.80
70184;DHT22;57554;51.546;6.776;2023-08-20T04:59:10;18.90;74.80
70184;DHT22;57554;51.546;6.776;2023-08-20T05:01:37;18.90;74.60
70184;DHT22;57554;51.546;6.776;2023-08-20T05:04:03;18.90;74.60
70184;DHT22;57554;51.546;6.776;2023-08-20T05:06:29;18.90;74.60
70184;DHT22;57554;51.546;6.776;2023-08-20T05:08:54;18.90;74.60
70184;DHT22;57554;51.546;6.776;2023-08-20T05:11:20;19.00;74.60
70184;DHT22;57554;51.546;6.776;2023-08-20T05:13:47;18.90;74.70
70184;DHT22;57554;51.546;6.776;2023-08-20T05:16:12;19.00;74.70
70184;DHT22;57554;51.546;6.776;2023-08-20T05:18:38;19.00;74.80
70184;DHT22;57554;51.546;6.776;2023-08-20T05:21:03;19.00;74.80
70184;DHT22;57554;51.546;6.776;2023-08-20T05:23:29;19.00;74.80
70184;DHT22;57554;51.546;6.776;2023-08-20T05:25:54;19.00;74.80
70184;DHT22;57554;51.546;6.776;2023-08-20T05:28:20;19.00;74.90
70184;DHT22;57554;51.546;6.776;2023-08-20T05:30:54;19.10;74.90
70184;DHT22;57554;51.546;6.776;2023-08-20T05:33:20;19.10;75.00
70184;DHT22;57554;51.546;6.776;2023-08-20T05:35:46;19.10;74.90
70184;DHT22;57554;51.546;6.776;2023-08-20T05:38:11;19.20;75.00
70184;DHT22;57554;51.546;6.776;2023-08-20T05:40:37;19.20;75.10
70184;DHT22;57554;51.546;6.776;2023-08-20T05:43:03;19.20;75.10
70184;DHT22;57554;51.546;6.776;2023-08-20T05:45:28;19.30;75.10
70184;DHT22;57554;51.546;6.776;2023-08-20T05:47:54;19.30;75.20
70184;DHT22;57554;51.546;6.776;2023-08-20T05:50:19;19.40;75.30
70184;DHT22;57554;51.546;6.776;2023-08-20T05:52:45;19.50;75.40
70184;DHT22;57554;51.546;6.776;2023-08-20T05:55:10;19.60;75.50
70184;DHT22;57554;51.546;6.776;2023-08-20T05:57:36;19.80;75.50
70184;DHT22;57554;51.546;6.776;2023-08-20T06:00:03;19.90;75.40
70184;DHT22;57554;51.546;6.776;2023-08-20T06:02:30;20.10;75.30
70184;DHT22;57554;51.546;6.776;2023-08-20T06:04:55;20.20;75.30
70184;DHT22;57554;51.546;6.776;2023-08-20T06:07:21;20.40;75.20
70184;DHT22;57554;51.546;6.776;2023-08-20T06:09:47;20.60;75.10
70184;DHT22;57554;51.546;6.776;2023-08-20T06:12:12;20.80;74.90
70184;DHT22;57554;51.546;6.776;2023-08-20T06:14:38;20.90;74.80
70184;DHT22;57554;51.546;6.776;2023-08-20T06:17:03;21.10;74.70
70184;DHT22;57554;51.546;6.776;2023-08-20T06:19:29;21.20;74.50
70184;DHT22;57554;51.546;6.776;2023-08-20T06:21:55;21.40;74.30
70184;DHT22;57554;51.546;6.776;2023-08-20T06:24:20;21.50;74.20
70184;DHT22;57554;51.546;6.776;2023-08-20T06:26:46;21.60;74.00
70184;DHT22;57554;51.546;6.776;2023-08-20T06:29:11;21.70;73.90
70184;DHT22;57554;51.546;6.776;2023-08-20T06:31:37;21.90;73.80
70184;DHT22;57554;51.546;6.776;2023-08-20T06:34:02;22.00;73.70
70184;DHT22;57554;51.546;6.776;2023-08-20T06:36:29;22.20;73.60
70184;DHT22;57554;51.546;6.776;2023-08-20T06:38:54;22.30;73.50
70184;DHT22;57554;51.546;6.776;2023-08-20T06:41:20;22.50;73.20
70184;DHT22;57554;51.546;6.776;2023-08-20T06:43:45;22.70;73.00
70184;DHT22;57554;51.546;6.776;2023-08-20T06:46:11;22.80;72.90
70184;DHT22;57554;51.546;6.776;2023-08-20T06:48:36;23.00;72.90
70184;DHT22;57554;51.546;6.776;2023-08-20T06:51:14;23.20;72.70
70184;DHT22;57554;51.546;6.776;2023-08-20T06:53:41;23.40;72.40
70184;DHT22;57554;51.546;6.776;2023-08-20T06:56:07;23.60;72.10
70184;DHT22;57554;51.546;6.776;2023-08-20T06:58:34;23.70;71.80
70184;DHT22;57554;51.546;6.776;2023-08-20T07:00:59;23.90;71.60
70184;DHT22;57554;51.546;6.776;2023-08-20T07:03:43;24.10;71.40
70184;DHT22;57554;51.546;6.776;2023-08-20T07:06:10;24.30;71.20
70184;DHT22;57554;51.546;6.776;2023-08-20T07:08:36;24.50;71.10
70184;DHT22;57554;51.546;6.776;2023-08-20T07:11:04;24.60;70.60
70184;DHT22;57554;51.546;6.776;2023-08-20T07:13:29;24.80;70.10
70184;DHT22;57554;51.546;6.776;2023-08-20T07:15:55;25.00;69.90
70184;DHT22;57554;51.546;6.776;2023-08-20T07:18:20;25.20;69.30
70184;DHT22;57554;51.546;6.776;2023-08-20T07:20:46;25.40;69.00
70184;DHT22;57554;51.546;6.776;2023-08-20T07:23:12;25.60;68.60
70184;DHT22;57554;51.546;6.776;2023-08-20T07:25:39;25.80;68.50
70184;DHT22;57554;51.546;6.776;2023-08-20T07:28:05;25.90;68.10
70184;DHT22;57554;51.546;6.776;2023-08-20T07:30:31;26.10;67.30
70184;DHT22;57554;51.546;6.776;2023-08-20T07:32:57;26.20;66.80
70184;DHT22;57554;51.546;6.776;2023-08-20T07:35:23;26.40;66.30
70184;DHT22;57554;51.546;6.776;2023-08-20T07:37:48;26.50;65.80
70184;DHT22;57554;51.546;6.776;2023-08-20T07:40:14;26.70;65.30
70184;DHT22;57554;51.546;6.776;2023-08-20T07:42:42;26.90;65.40
70184;DHT22;57554;51.546;6.776;2023-08-20T07:45:08;27.00;64.70
70184;DHT22;57554;51.546;6.776;2023-08-20T07:47:36;27.20;64.80
70184;DHT22;57554;51.546;6.776;2023-08-20T07:50:03;27.40;64.00
70184;DHT22;57554;51.546;6.776;2023-08-20T07:52:28;27.50;63.40
70184;DHT22;57554;51.546;6.776;2023-08-20T07:54:54;27.70;63.20
70184;DHT22;57554;51.546;6.776;2023-08-20T07:57:19;27.80;63.00
70184;DHT22;57554;51.546;6.776;2023-08-20T07:59:45;27.90;62.20
70184;DHT22;57554;51.546;6.776;2023-08-20T08:02:11;28.00;61.80
70184;DHT22;57554;51.546;6.776;2023-08-20T08:04:36;28.10;61.50
70184;DHT22;57554;51.546;6.776;2023-08-20T08:07:02;28.20;62.50
70184;DHT22;57554;51.546;6.776;2023-08-20T08:09:30;28.40;62.10
70184;DHT22;57554;51.546;6.776;2023-08-20T08:11:56;28.60;61.70
70184;DHT22;57554;51.546;6.776;2023-08-20T08:14:21;28.80;60.90
70184;DHT22;57554;51.546;6.776;2023-08-20T08:16:47;29.00;60.80
70184;DHT22;57554;51.546;6.776;2023-08-20T08:19:13;29.30;60.40
70184;DHT22;57554;51.546;6.776;2023-08-20T08:21:39;29.40;59.30
70184;DHT22;57554;51.546;6.776;2023-08-20T08:24:05;29.50;58.40
70184;DHT22;57554;51.546;6.776;2023-08-20T08:26:32;29.60;58.10
70184;DHT22;57554;51.546;6.776;2023-08-20T08:28:58;29.70;57.60
70184;DHT22;57554;51.546;6.776;2023-08-20T08:31:24;29.80;56.40
70184;DHT22;57554;51.546;6.776;2023-08-20T08:33:49;30.00;56.10
70184;DHT22;57554;51.546;6.776;2023-08-20T08:36:15;30.10;56.20
70184;DHT22;57554;51.546;6.776;2023-08-20T08:38:42;30.30;55.30
70184;DHT22;57554;51.546;6.776;2023-08-20T08:41:11;30.30;55.00
70184;DHT22;57554;51.546;6.776;2023-08-20T08:43:40;30.40;54.90
70184;DHT22;57554;51.546;6.776;2023-08-20T08:46:08;30.60;54.00
70184;DHT22;57554;51.546;6.776;2023-08-20T08:48:38;30.60;53.30
70184;DHT22;57554;51.546;6.776;2023-08-20T08:51:05;30.50;52.40
70184;DHT22;57554;51.546;6.776;2023-08-20T08:53:30;30.40;52.20
70184;DHT22;57554;51.546;6.776;2023-08-20T08:55:57;30.30;52.40
70184;DHT22;57554;51.546;6.776;2023-08-20T08:58:23;30.10;52.50
70184;DHT22;57554;51.546;6.776;2023-08-20T09:00:49;29.90;53.40
70184;DHT22;57554;51.546;6.776;2023-08-20T09:03:15;29.90;53.60
70184;DHT22;57554;51.546;6.776;2023-08-20T09:05:47;30.10;53.10
70184;DHT22;57554;51.546;6.776;2023-08-20T09:08:27;30.30;52.60
70184;DHT22;57554;51.546;6.776;2023-08-20T09:10:55;30.40;52.20
70184;DHT22;57554;51.546;6.776;2023-08-20T09:13:25;30.60;53.20
70184;DHT22;57554;51.546;6.776;2023-08-20T09:15:54;30.90;51.60
70184;DHT22;57554;51.546;6.776;2023-08-20T09:18:20;31.10;49.90
70184;DHT22;57554;51.546;6.776;2023-08-20T09:20:48;31.20;49.90
70184;DHT22;57554;51.546;6.776;2023-08-20T09:23:15;31.40;49.70
70184;DHT22;57554;51.546;6.776;2023-08-20T09:25:44;31.50;47.80
70184;DHT22;57554;51.546;6.776;2023-08-20T09:28:10;31.20;47.50
70184;DHT22;57554;51.546;6.776;2023-08-20T09:30:37;30.80;48.70
70184;DHT22;57554;51.546;6.776;2023-08-20T09:33:11;30.60;50.30
70184;DHT22;57554;51.546;6.776;2023-08-20T09:35:38;30.50;50.20
70184;DHT22;57554;51.546;6.776;2023-08-20T09:38:13;30.40;50.50
70184;DHT22;57554;51.546;6.776;2023-08-20T09:40:39;30.20;51.60
70184;DHT22;57554;51.546;6.776;2023-08-20T09:43:07;30.20;51.60
70184;DHT22;57554;51.546;6.776;2023-08-20T09:45:34;30.40;51.10
70184;DHT22;57554;51.546;6.776;2023-08-20T09:48:05;30.60;51.70
70184;DHT22;57554;51.546;6.776;2023-08-20T09:50:35;30.90;52.20
70184;DHT22;57554;51.546;6.776;2023-08-20T09:53:34;31.20;51.40
70184;DHT22;57554;51.546;6.776;2023-08-20T09:56:09;31.50;50.70
70184;DHT22;57554;51.546;6.776;2023-08-20T09:58:37;31.70;49.50
70184;DHT22;57554;51.546;6.776;2023-08-20T10:01:03;31.70;49.00
70184;DHT22;57554;51.546;6.776;2023-08-20T10:03:30;31.60;48.90
70184;DHT22;57554;51.546;6.776;2023-08-20T10:05:56;31.60;48.70
70184;DHT22;57554;51.546;6.776;2023-08-20T10:08:22;31.50;49.10
70184;DHT22;57554;51.546;6.776;2023-08-20T10:10:48;31.50;48.30
70184;DHT22;57554;51.546;6.776;2023-08-20T10:13:14;31.30;47.90
70184;DHT22;57554;51.546;6.776;2023-08-20T10:15:41;31.20;48.60
70184;DHT22;57554;51.546;6.776;2023-08-20T10:18:08;31.10;48.10
70184;DHT22;57554;51.546;6.776;2023-08-20T10:20:34;30.90;48.20
70184;DHT22;57554;51.546;6.776;2023-08-20T10:23:02;30.80;47.70
70184;DHT22;57554;51.546;6.776;2023-08-20T10:25:29;30.80;49.70
70184;DHT22;57554;51.546;6.776;2023-08-20T10:28:11;31.00;49.70
70184;DHT22;57554;51.546;6.776;2023-08-20T10:30:37;31.20;49.60
70184;DHT22;57554;51.546;6.776;2023-08-20T10:33:03;31.40;49.70
70184;DHT22;57554;51.546;6.776;2023-08-20T10:35:47;31.70;48.30
70184;DHT22;57554;51.546;6.776;2023-08-20T10:38:14;32.10;49.00
70184;DHT22;57554;51.546;6.776;2023-08-20T10:40:58;32.60;46.60
70184;DHT22;57554;51.546;6.776;2023-08-20T10:43:34;32.70;45.70
70184;DHT22;57554;51.546;6.776;2023-08-20T10:48:39;32.70;45.70
70184;DHT22;57554;51.546;6.776;2023-08-20T10:51:19;32.90;45.20
70184;DHT22;57554;51.546;6.776;2023-08-20T10:59:55;32.60;44.80
70184;DHT22;57554;51.546;6.776;2023-08-20T11:01:59;32.60;43.50
70184;DHT22;57554;51.546;6.776;2023-08-20T11:04:30;32.60;44.30
70184;DHT22;57554;51.546;6.776;2023-08-20T11:06:58;32.60;42.90
70184;DHT22;57554;51.546;6.776;2023-08-20T11:09:26;32.50;43.90
70184;DHT22;57554;51.546;6.776;2023-08-20T11:11:53;32.40;44.60
70184;DHT22;57554;51.546;6.776;2023-08-20T11:14:20;32.50;43.50
70184;DHT22;57554;51.546;6.776;2023-08-20T11:16:47;32.30;44.40
70184;DHT22;57554;51.546;6.776;2023-08-20T11:19:14;32.20;44.90
70184;DHT22;57554;51.546;6.776;2023-08-20T11:21:41;32.40;44.90
70184;DHT22;57554;51.546;6.776;2023-08-20T11:24:07;32.60;45.20
70184;DHT22;57554;51.546;6.776;2023-08-20T11:26:34;32.90;44.90
70184;DHT22;57554;51.546;6.776;2023-08-20T11:29:09;32.90;43.30
70184;DHT22;57554;51.546;6.776;2023-08-20T11:31:36;32.80;43.20
70184;DHT22;57554;51.546;6.776;2023-08-20T11:34:03;32.80;44.00
70184;DHT22;57554;51.546;6.776;2023-08-20T11:36:28;32.80;44.00
70184;DHT22;57554;51.546;6.776;2023-08-20T11:38:54;33.00;44.00
70184;DHT22;57554;51.546;6.776;2023-08-20T11:41:21;33.20;42.70
70184;DHT22;57554;51.546;6.776;2023-08-20T11:43:48;33.10;42.10
70184;DHT22;57554;51.546;6.776;2023-08-20T11:46:15;33.20;41.70
70184;DHT22;57554;51.546;6.776;2023-08-20T11:51:39;33.10;42.60
70184;DHT22;57554;51.546;6.776;2023-08-20T11:54:09;33.30;42.30
70184;DHT22;57554;51.546;6.776;2023-08-20T11:56:35;33.40;41.10
70184;DHT22;57554;51.546;6.776;2023-08-20T11:59:01;33.30;40.50
70184;DHT22;57554;51.546;6.776;2023-08-20T12:01:33;33.20;41.60
70184;DHT22;57554;51.546;6.776;2023-08-20T12:04:06;33.20;39.70
70184;DHT22;57554;51.546;6.776;2023-08-20T12:06:33;32.90;39.40
70184;DHT22;57554;51.546;6.776;2023-08-20T12:09:00;32.60;40.60
70184;DHT22;57554;51.546;6.776;2023-08-20T12:11:27;32.50;40.80
70184;DHT22;57554;51.546;6.776;2023-08-20T12:13:54;32.50;42.50
70184;DHT22;57554;51.546;6.776;2023-08-20T12:16:22;32.70;42.20
70184;DHT22;57554;51.546;6.776;2023-08-20T12:18:48;33.00;42.70
70184;DHT22;57554;51.546;6.776;2023-08-20T12:21:14;33.30;42.10
70184;DHT22;57554;51.546;6.776;2023-08-20T12:23:40;33.50;39.60
70184;DHT22;57554;51.546;6.776;2023-08-20T12:26:05;33.50;38.90
70184;DHT22;57554;51.546;6.776;2023-08-20T12:28:31;33.20;39.10
70184;DHT22;57554;51.546;6.776;2023-08-20T12:30:56;32.90;39.20
70184;DHT22;57554;51.546;6.776;2023-08-20T12:33:22;32.60;39.50
70184;DHT22;57554;51.546;6.776;2023-08-20T12:35:48;32.60;40.70
70184;DHT22;57554;51.546;6.776;2023-08-20T12:38:13;32.70;39.30
70184;DHT22;57554;51.546;6.776;2023-08-20T12:40:39;32.70;40.40
70184;DHT22;57554;51.546;6.776;2023-08-20T12:43:04;32.70;39.90
70184;DHT22;57554;51.546;6.776;2023-08-20T12:45:30;32.90;39.70
70184;DHT22;57554;51.546;6.776;2023-08-20T12:47:55;33.00;39.70
70184;DHT22;57554;51.546;6.776;2023-08-20T12:50:21;33.10;39.20
70184;DHT22;57554;51.546;6.776;2023-08-20T12:52:47;33.00;37.10
70184;DHT22;57554;51.546;6.776;2023-08-20T12:55:14;32.60;38.00
70184;DHT22;57554;51.546;6.776;2023-08-20T12:57:58;32.30;38.50
70184;DHT22;57554;51.546;6.776;2023-08-20T13:00:24;32.20;38.70
70184;DHT22;57554;51.546;6.776;2023-08-20T13:02:50;32.30;39.70
70184;DHT22;57554;51.546;6.776;2023-08-20T13:05:17;32.40;39.80
70184;DHT22;57554;51.546;6.776;2023-08-20T13:07:43;32.50;40.10
70184;DHT22;57554;51.546;6.776;2023-08-20T13:10:09;32.60;38.80
70184;DHT22;57554;51.546;6.776;2023-08-20T13:12:36;32.70;38.10
70184;DHT22;57554;51.546;6.776;2023-08-20T13:15:02;32.60;39.90
70184;DHT22;57554;51.546;6.776;2023-08-20T13:17:29;32.60;40.80
70184;DHT22;57554;51.546;6.776;2023-08-20T13:19:55;32.60;39.70
70184;DHT22;57554;51.546;6.776;2023-08-20T13:22:21;32.70;39.60
70184;DHT22;57554;51.546;6.776;2023-08-20T13:24:47;32.70;39.20
70184;DHT22;57554;51.546;6.776;2023-08-20T13:27:13;32.80;39.10
70184;DHT22;57554;51.546;6.776;2023-08-20T13:29:40;32.80;38.70
70184;DHT22;57554;51.546;6.776;2023-08-20T13:32:06;32.60;38.80
70184;DHT22;57554;51.546;6.776;2023-08-20T13:34:31;32.50;40.10
70184;DHT22;57554;51.546;6.776;2023-08-20T13:36:57;32.40;39.50
70184;DHT22;57554;51.546;6.776;2023-08-20T13:39:23;32.30;39.70
70184;DHT22;57554;51.546;6.776;2023-08-20T13:41:49;32.20;40.10
70184;DHT22;57554;51.546;6.776;2023-08-20T13:44:14;32.20;38.00
70184;DHT22;57554;51.546;6.776;2023-08-20T13:46:40;32.10;38.60
70184;DHT22;57554;51.546;6.776;2023-08-20T13:49:05;31.90;38.50
70184;DHT22;57554;51.546;6.776;2023-08-20T13:51:31;31.80;39.40
70184;DHT22;57554;51.546;6.776;2023-08-20T13:53:57;31.70;39.20
70184;DHT22;57554;51.546;6.776;2023-08-20T13:56:23;31.60;39.00
70184;DHT22;57554;51.546;6.776;2023-08-20T13:58:49;31.50;39.80
70184;DHT22;57554;51.546;6.776;2023-08-20T14:01:15;31.50;39.70
70184;DHT22;57554;51.546;6.776;2023-08-20T14:03:41;31.60;40.00
70184;DHT22;57554;51.546;6.776;2023-08-20T14:06:06;31.60;39.30
70184;DHT22;57554;51.546;6.776;2023-08-20T14:08:32;31.50;39.50
70184;DHT22;57554;51.546;6.776;2023-08-20T14:10:58;31.40;39.90
70184;DHT22;57554;51.546;6.776;2023-08-20T14:13:23;31.30;39.50
70184;DHT22;57554;51.546;6.776;2023-08-20T14:15:49;31.30;40.20
70184;DHT22;57554;51.546;6.776;2023-08-20T14:18:15;31.30;40.90
70184;DHT22;57554;51.546;6.776;2023-08-20T14:20:40;31.40;40.90
70184;DHT22;57554;51.546;6.776;2023-08-20T14:23:06;31.50;39.40
70184;DHT22;57554;51.546;6.776;2023-08-20T14:25:32;31.60;40.20
70184;DHT22;57554;51.546;6.776;2023-08-20T14:27:57;31.60;38.80
70184;DHT22;57554;51.546;6.776;2023-08-20T14:30:23;31.50;38.80
70184;DHT22;57554;51.546;6.776;2023-08-20T14:32:48;31.40;38.80
70184;DHT22;57554;51.546;6.776;2023-08-20T14:35:14;31.30;39.10
70184;DHT22;57554;51.546;6.776;2023-08-20T14:37:39;31.20;38.60
70184;DHT22;57554;51.546;6.776;2023-08-20T14:40:05;31.20;38.80
70184;DHT22;57554;51.546;6.776;2023-08-20T14:42:32;31.10;39.20
70184;DHT22;57554;51.546;6.776;2023-08-20T14:44:58;31.10;38.60
70184;DHT22;57554;51.546;6.776;2023-08-20T14:47:23;31.10;38.90
70184;DHT22;57554;51.546;6.776;2023-08-20T14:49:49;31.10;40.00
70184;DHT22;57554;51.546;6.776;2023-08-20T14:52:15;31.10;39.70
70184;DHT22;57554;51.546;6.776;2023-08-20T14:54:41;31.10;40.10
70184;DHT22;57554;51.546;6.776;2023-08-20T14:57:07;31.10;38.80
70184;DHT22;57554;51.546;6.776;2023-08-20T14:59:33;31.00;38.10
70184;DHT22;57554;51.546;6.776;2023-08-20T15:01:59;30.90;38.50
70184;DHT22;57554;51.546;6.776;2023-08-20T15:04:25;30.80;38.70
70184;DHT22;57554;51.546;6.776;2023-08-20T15:06:51;30.80;39.80
70184;DHT22;57554;51.546;6.776;2023-08-20T15:09:16;30.80;40.40
70184;DHT22;57554;51.546;6.776;2023-08-20T15:11:42;30.90;39.60
70184;DHT22;57554;51.546;6.776;2023-08-20T15:14:08;31.00;40.10
70184;DHT22;57554;51.546;6.776;2023-08-20T15:16:33;31.10;39.90
70184;DHT22;57554;51.546;6.776;2023-08-20T15:18:59;31.10;39.90
70184;DHT22;57554;51.546;6.776;2023-08-20T15:21:25;31.20;40.40
70184;DHT22;57554;51.546;6.776;2023-08-20T15:23:51;31.30;40.00
70184;DHT22;57554;51.546;6.776;2023-08-20T15:26:16;31.30;39.90
70184;DHT22;57554;51.546;6.776;2023-08-20T15:28:42;31.30;39.90
70184;DHT22;57554;51.546;6.776;2023-08-20T15:31:07;31.30;39.40
70184;DHT22;57554;51.546;6.776;2023-08-20T15:33:33;31.30;39.50
70184;DHT22;57554;51.546;6.776;2023-08-20T15:35:59;31.20;39.90
70184;DHT22;57554;51.546;6.776;2023-08-20T15:38:25;31.10;40.40
70184;DHT22;57554;51.546;6.776;2023-08-20T15:40:50;31.10;39.30
70184;DHT22;57554;51.546;6.776;2023-08-20T15:43:16;31.00;40.00
70184;DHT22;57554;51.546;6.776;2023-08-20T15:45:41;31.00;40.30